Time;durP1;ratioP1;P1;durP2;ratioP2;P2;SDS_P1;SDS_P2;PMS_P1;PMS_P2;Temp;Humidity;BMP_temperature;BMP_pressure;BME280_temperature;BME280_humidity;BME280_pressure;Samples;Min_cycle;Max_cycle;Signal;HPM_P1;HPM_P2
2022/01/31 00:00:15;;;;;;;1.37;0.80;;;;;;;3.57;60.50;100013.28;1849536;77;25620;-59
2022/01/31 00:02:46;;;;;;;0.95;0.62;;;;;;;3.57;60.94;100009.30;1840988;77;25900;-60
2022/01/31 00:05:14;;;;;;;2.77;0.75;;;;;;;3.55;61.18;99998.78;1848642;77;25759;-59
2022/01/31 00:07:41;;;;;;;2.12;0.60;;;;;;;3.54;61.43;100005.05;1848492;77;25655;-59
2022/01/31 00:10:12;;;;;;;1.45;0.40;;;;;;;3.55;61.33;99999.24;1845645;77;25803;-59
2022/01/31 00:12:55;;;;;;;0.68;0.57;;;;;;;3.55;61.50;100007.22;1846538;77;25781;-59
2022/01/31 00:15:18;;;;;;;1.07;0.60;;;;;;;3.56;61.26;100002.27;1839971;77;27549;-59
2022/01/31 00:17:45;;;;;;;1.27;0.70;;;;;;;3.58;61.17;100005.22;1851389;77;25784;-59
2022/01/31 00:20:12;;;;;;;1.62;0.70;;;;;;;3.58;61.27;100000.36;1851367;77;25817;-59
2022/01/31 00:22:39;;;;;;;0.82;0.53;;;;;;;3.59;61.05;100008.72;1834341;77;25798;-59
2022/01/31 00:25:07;;;;;;;1.30;0.65;;;;;;;3.57;61.00;100003.52;1841868;77;25711;-59
2022/01/31 00:27:34;;;;;;;1.65;0.65;;;;;;;3.56;61.03;100004.47;1849578;77;27450;-59
2022/01/31 00:30:01;;;;;;;0.80;0.57;;;;;;;3.56;61.18;100003.60;1853541;77;25958;-59
2022/01/31 00:32:29;;;;;;;1.05;0.60;;;;;;;3.54;61.23;99993.58;1848737;77;25777;-59
2022/01/31 00:34:58;;;;;;;0.80;0.60;;;;;;;3.57;60.95;100003.52;1846018;77;25815;-60
2022/01/31 00:37:25;;;;;;;1.20;0.70;;;;;;;3.56;60.84;99996.95;1851920;77;25773;-60
2022/01/31 00:39:53;;;;;;;1.70;0.78;;;;;;;3.53;60.94;100000.69;1856520;77;27478;-59
2022/01/31 00:42:21;;;;;;;1.17;0.50;;;;;;;3.51;60.86;99999.11;1848793;77;26373;-59
2022/01/31 00:44:53;;;;;;;1.30;0.78;;;;;;;3.49;60.83;99999.69;1841032;77;25769;-60
2022/01/31 00:47:21;;;;;;;1.10;0.80;;;;;;;3.48;60.86;100001.98;1846634;77;26004;-59
2022/01/31 00:49:51;;;;;;;1.35;0.88;;;;;;;3.46;60.84;100003.42;1847791;77;26340;-59
2022/01/31 00:52:19;;;;;;;0.93;0.80;;;;;;;3.45;60.93;99998.56;1837532;77;27486;-59
2022/01/31 00:54:47;;;;;;;0.60;0.60;;;;;;;3.45;60.82;99995.91;1851108;77;25688;-59
2022/01/31 00:57:14;;;;;;;1.30;0.78;;;;;;;3.43;60.96;100000.52;1845057;77;25746;-59
2022/01/31 00:59:41;;;;;;;1.32;0.80;;;;;;;3.41;61.06;99995.77;1849398;77;26965;-59
2022/01/31 01:02:08;;;;;;;1.00;0.82;;;;;;;3.41;61.03;100002.89;1848382;77;25669;-59
2022/01/31 01:04:35;;;;;;;2.12;1.00;;;;;;;3.40;61.03;100010.03;1848880;77;27495;-59
2022/01/31 01:07:03;;;;;;;2.75;0.75;;;;;;;3.38;61.10;100003.13;1848823;77;25690;-60
2022/01/31 01:09:30;;;;;;;2.40;0.98;;;;;;;3.36;61.26;100001.05;1847021;77;25698;-59
2022/01/31 01:11:57;;;;;;;5.45;0.90;;;;;;;3.33;61.27;100000.79;1851016;77;26617;-59
2022/01/31 01:14:24;;;;;;;2.00;1.00;;;;;;;3.31;61.08;99999.20;1852793;77;25660;-59
2022/01/31 01:16:51;;;;;;;1.10;0.90;;;;;;;3.26;61.19;99991.06;1849161;77;27474;-59
2022/01/31 01:19:18;;;;;;;1.55;0.85;;;;;;;3.24;61.38;99990.81;1849865;77;25833;-59
2022/01/31 01:21:45;;;;;;;1.10;1.00;;;;;;;3.19;61.49;99993.78;1848153;77;25796;-60
2022/01/31 01:24:14;;;;;;;1.25;0.90;;;;;;;3.17;61.47;99991.71;1840725;77;25807;-59
2022/01/31 01:26:43;;;;;;;2.20;0.98;;;;;;;3.13;61.80;99985.77;1850499;77;25906;-59
2022/01/31 01:29:11;;;;;;;1.40;0.90;;;;;;;3.15;61.67;99992.28;1848811;77;27432;-59
2022/01/31 01:31:38;;;;;;;1.25;0.80;;;;;;;3.17;61.86;99989.55;1847440;77;25757;-60
2022/01/31 01:34:06;;;;;;;2.62;0.98;;;;;;;3.17;61.87;99977.58;1854118;77;25651;-59
2022/01/31 01:36:34;;;;;;;1.30;0.90;;;;;;;3.18;61.89;99984.60;1842523;77;25837;-59
2022/01/31 01:39:02;;;;;;;0.90;0.65;;;;;;;3.18;62.07;99990.75;1852995;77;25448;-59
2022/01/31 01:41:29;;;;;;;1.87;0.80;;;;;;;3.16;62.29;99997.98;1852676;77;27444;-60
2022/01/31 01:43:57;;;;;;;10.25;1.25;;;;;;;3.15;62.22;100000.75;1852606;77;25693;-59
2022/01/31 01:46:24;;;;;;;2.42;0.98;;;;;;;3.14;62.29;100005.20;1848617;77;25966;-59
2022/01/31 01:48:51;;;;;;;0.90;0.70;;;;;;;3.14;62.27;100011.84;1845535;77;25811;-59
2022/01/31 01:51:19;;;;;;;1.20;1.00;;;;;;;3.10;62.53;100011.70;1849817;77;26312;-59
2022/01/31 01:53:46;;;;;;;2.47;1.00;;;;;;;3.06;62.55;100016.39;1846167;77;27465;-58
2022/01/31 01:56:14;;;;;;;1.27;1.00;;;;;;;3.02;62.56;100012.23;1846606;77;25664;-59
2022/01/31 01:58:44;;;;;;;1.85;1.17;;;;;;;2.96;62.87;100006.02;1836748;77;25804;-59
2022/01/31 02:01:13;;;;;;;2.20;1.10;;;;;;;2.93;62.64;100007.55;1849013;77;25814;-59
2022/01/31 02:03:53;;;;;;;1.55;0.95;;;;;;;2.92;62.88;100004.05;1847644;77;25681;-59
2022/01/31 02:06:22;;;;;;;0.72;0.60;;;;;;;2.94;62.81;99999.95;1848189;77;27575;-59
2022/01/31 02:08:49;;;;;;;1.47;0.85;;;;;;;2.94;62.66;100007.47;1845766;77;26063;-59
2022/01/31 02:11:20;;;;;;;1.52;0.95;;;;;;;2.94;62.66;99995.97;1847788;77;25671;-59
2022/01/31 02:13:49;;;;;;;3.77;1.17;;;;;;;2.91;62.63;99994.37;1851611;77;27438;-59
2022/01/31 02:16:34;;;;;;;2.33;1.47;;;;;;;2.92;62.52;99992.56;1841688;77;25831;-59
2022/01/31 02:19:02;;;;;;;1.25;1.00;;;;;;;2.92;62.66;100000.53;1844882;77;27461;-59
2022/01/31 02:21:34;;;;;;;2.80;0.88;;;;;;;2.90;62.74;99998.48;1797811;77;25861;-59
2022/01/31 02:24:04;;;;;;;1.92;0.90;;;;;;;2.90;62.79;100003.30;1838947;77;25467;-59
2022/01/31 02:26:32;;;;;;;1.45;0.90;;;;;;;2.90;62.66;100007.29;1839161;77;26584;-59
2022/01/31 02:29:01;;;;;;;8.13;0.90;;;;;;;2.90;62.61;100007.78;1852377;77;25798;-59
2022/01/31 02:31:29;;;;;;;2.37;0.80;;;;;;;2.90;62.34;100008.62;1849833;77;27464;-59
2022/01/31 02:33:55;;;;;;;1.00;0.75;;;;;;;2.92;62.25;100004.05;1851314;77;25686;-59
2022/01/31 02:36:23;;;;;;;0.57;0.50;;;;;;;2.94;62.24;100009.25;1847814;77;25705;-59
2022/01/31 02:38:51;;;;;;;2.77;0.75;;;;;;;2.95;62.16;100025.11;1851101;77;25759;-59
2022/01/31 02:41:18;;;;;;;1.67;0.90;;;;;;;3.00;62.07;100010.18;1846870;77;25670;-60
2022/01/31 02:43:49;;;;;;;0.70;0.65;;;;;;;2.99;62.44;100021.77;1853211;77;28133;-59
2022/01/31 02:46:16;;;;;;;2.05;0.98;;;;;;;3.01;62.38;100019.83;1848842;77;25717;-59
2022/01/31 02:48:45;;;;;;;1.52;0.78;;;;;;;3.02;62.55;100020.20;1849030;77;25794;-59
2022/01/31 02:51:20;;;;;;;1.27;0.70;;;;;;;3.02;62.51;100008.23;1848600;77;25793;-59
2022/01/31 02:53:42;;;;;;;0.95;0.80;;;;;;;3.02;62.67;100001.59;1818146;77;25809;-59
2022/01/31 02:56:10;;;;;;;1.75;0.60;;;;;;;3.02;62.59;100009.57;1850389;77;27450;-60
2022/01/31 02:58:37;;;;;;;0.78;0.72;;;;;;;3.02;62.73;100015.38;1846406;77;25686;-60
2022/01/31 03:01:05;;;;;;;2.95;1.00;;;;;;;3.01;62.66;100013.18;1842515;77;25730;-59
2022/01/31 03:03:34;;;;;;;0.80;0.70;;;;;;;3.03;62.48;100015.26;1850223;77;25772;-59
2022/01/31 03:06:01;;;;;;;0.82;0.62;;;;;;;3.08;62.23;100018.47;1844988;77;25685;-59
2022/01/31 03:08:30;;;;;;;0.62;0.42;;;;;;;3.17;62.53;100033.40;1845934;77;28671;-60
2022/01/31 03:10:57;;;;;;;0.82;0.75;;;;;;;3.23;62.13;100036.95;1848812;77;25725;-59
2022/01/31 03:13:25;;;;;;;1.02;0.62;;;;;;;3.25;61.75;100036.38;1844941;77;25694;-59
2022/01/31 03:15:53;;;;;;;0.98;0.62;;;;;;;3.25;61.38;100043.02;1848857;77;25785;-59
2022/01/31 03:18:31;;;;;;;0.80;0.70;;;;;;;3.26;61.11;100060.18;1848327;77;25761;-59
2022/01/31 03:20:58;;;;;;;5.70;0.82;;;;;;;3.28;60.78;100070.69;1848836;77;27543;-60
2022/01/31 03:23:25;;;;;;;3.47;1.70;;;;;;;3.29;60.63;100079.05;1849109;77;25433;-59
2022/01/31 03:25:52;;;;;;;3.10;1.65;;;;;;;3.29;60.75;100062.63;1847813;77;25782;-58
2022/01/31 03:28:19;;;;;;;2.80;1.10;;;;;;;3.29;61.04;100063.09;1853203;77;26111;-60
2022/01/31 03:30:46;;;;;;;2.25;1.60;;;;;;;3.27;61.35;100077.00;1840197;77;25702;-60
2022/01/31 03:33:13;;;;;;;1.35;1.12;;;;;;;3.23;61.78;100086.12;1851117;77;27452;-59
2022/01/31 03:35:41;;;;;;;4.85;1.32;;;;;;;3.21;62.14;100089.36;1848060;77;25811;-59
2022/01/31 03:38:08;;;;;;;1.60;0.95;;;;;;;3.17;62.70;100091.37;1847143;77;25732;-59
2022/01/31 03:40:34;;;;;;;2.00;0.93;;;;;;;3.11;62.91;100095.30;1840334;77;25804;-59
2022/01/31 03:43:01;;;;;;;1.40;0.68;;;;;;;3.06;63.88;100103.22;1848453;77;25798;-59
2022/01/31 03:45:33;;;;;;;2.02;0.88;;;;;;;3.01;65.37;100100.03;1845909;77;28358;-59
2022/01/31 03:48:00;;;;;;;1.32;0.88;;;;;;;2.92;65.89;100122.28;1848845;77;25733;-59
2022/01/31 03:50:28;;;;;;;1.62;0.80;;;;;;;2.81;65.78;100109.73;1849089;77;25924;-59
2022/01/31 03:52:55;;;;;;;2.20;0.78;;;;;;;2.82;66.03;100121.19;1849908;77;25793;-59
2022/01/31 03:55:22;;;;;;;1.50;0.78;;;;;;;2.80;65.63;100123.96;1850455;77;25704;-58
2022/01/31 03:57:50;;;;;;;5.33;1.00;;;;;;;2.83;65.84;100125.56;1845253;77;27493;-59
2022/01/31 04:00:26;;;;;;;1.65;0.90;;;;;;;2.82;65.92;100135.80;1836633;77;25757;-59
2022/01/31 04:02:54;;;;;;;3.50;1.00;;;;;;;2.78;66.56;100142.30;1840315;77;25844;-59
2022/01/31 04:05:21;;;;;;;3.22;1.12;;;;;;;2.68;66.93;100134.06;1837782;77;25795;-60
2022/01/31 04:07:47;;;;;;;2.42;1.07;;;;;;;2.67;66.54;100124.38;1843381;77;25633;-59
2022/01/31 04:10:14;;;;;;;16.35;8.80;;;;;;;2.68;66.51;100115.47;1842007;77;27495;-60
2022/01/31 04:12:40;;;;;;;9.88;4.58;;;;;;;2.68;66.67;100122.11;1842477;77;25583;-59
2022/01/31 04:15:08;;;;;;;2.00;1.00;;;;;;;2.70;66.86;100119.34;1838516;76;25772;-59
2022/01/31 04:17:37;;;;;;;6.72;1.02;;;;;;;2.71;67.05;100113.95;1840137;77;26390;-59
2022/01/31 04:20:08;;;;;;;2.27;1.02;;;;;;;2.66;67.00;100108.08;1841312;77;25733;-59
2022/01/31 04:23:00;;;;;;;3.50;1.20;;;;;;;2.63;66.87;100101.17;1838692;77;27460;-60
2022/01/31 04:25:29;;;;;;;1.65;1.05;;;;;;;2.63;66.62;100101.66;1847933;77;25793;-60
2022/01/31 04:28:06;;;;;;;3.08;1.20;;;;;;;2.60;67.08;100109.81;1848605;77;25705;-59
2022/01/31 04:30:36;;;;;;;2.22;1.02;;;;;;;2.58;67.08;100113.91;1832692;77;25886;-59
2022/01/31 04:33:04;;;;;;;5.12;1.50;;;;;;;2.57;67.51;100116.64;1853548;77;26469;-59
2022/01/31 04:35:30;;;;;;;1.75;1.40;;;;;;;2.53;67.13;100117.81;1841712;77;27520;-60
2022/01/31 04:38:00;;;;;;;4.47;1.20;;;;;;;2.50;67.01;100117.06;1845205;77;25440;-59
2022/01/31 04:40:27;;;;;;;1.90;1.10;;;;;;;2.48;67.40;100118.95;1838647;77;25689;-59
2022/01/31 04:42:53;;;;;;;3.12;0.93;;;;;;;2.47;67.83;100117.73;1854793;77;25772;-59
2022/01/31 04:45:22;;;;;;;2.95;1.12;;;;;;;2.48;67.53;100124.75;1822922;77;25742;-60
2022/01/31 04:47:48;;;;;;;2.00;1.10;;;;;;;2.53;67.56;100119.98;1839770;77;27474;-58
2022/01/31 04:50:15;;;;;;;2.92;2.05;;;;;;;2.59;67.96;100127.56;1848290;77;25641;-59
2022/01/31 04:52:42;;;;;;;8.40;2.02;;;;;;;2.64;68.58;100121.95;1839516;77;26174;-59
2022/01/31 04:55:11;;;;;;;5.97;1.35;;;;;;;2.68;68.21;100131.89;1848004;77;26483;-58
2022/01/31 04:57:39;;;;;;;3.58;1.75;;;;;;;2.71;68.05;100139.18;1854543;77;25762;-59
2022/01/31 05:00:08;;;;;;;1.60;1.20;;;;;;;2.72;67.78;100135.58;1852733;77;27412;-59
2022/01/31 05:02:36;;;;;;;4.03;1.65;;;;;;;2.76;67.95;100141.05;1848946;77;25775;-59
2022/01/31 05:05:05;;;;;;;13.58;7.97;;;;;;;2.80;67.87;100149.20;1854753;77;25777;-59
2022/01/31 05:07:33;;;;;;;13.88;8.45;;;;;;;2.80;67.65;100140.36;1850206;77;26467;-59
2022/01/31 05:10:00;;;;;;;18.57;9.65;;;;;;;2.74;67.44;100136.30;1855620;77;26424;-59
2022/01/31 05:12:27;;;;;;;8.15;5.22;;;;;;;2.73;67.38;100141.27;1855599;77;28214;-59
2022/01/31 05:14:54;;;;;;;11.78;6.50;;;;;;;2.68;66.86;100155.30;1852606;77;26200;-60
2022/01/31 05:17:20;;;;;;;7.12;3.15;;;;;;;2.59;66.60;100154.12;1854301;77;25756;-60
2022/01/31 05:19:47;;;;;;;3.67;2.12;;;;;;;2.53;66.47;100159.81;1851534;77;25804;-60
2022/01/31 05:22:13;;;;;;;4.15;2.20;;;;;;;2.45;66.43;100156.80;1852897;77;25763;-59
2022/01/31 05:24:40;;;;;;;5.00;2.20;;;;;;;2.40;66.61;100157.09;1850656;76;28199;-59
2022/01/31 05:27:07;;;;;;;3.45;1.62;;;;;;;2.37;66.66;100157.77;1854739;77;25714;-59
2022/01/31 05:29:33;;;;;;;4.58;1.70;;;;;;;2.35;66.61;100163.19;1844180;77;25489;-60
2022/01/31 05:32:00;;;;;;;7.60;1.70;;;;;;;2.33;66.75;100160.61;1854449;77;25777;-60
2022/01/31 05:34:27;;;;;;;4.22;1.57;;;;;;;2.33;66.65;100155.30;1857257;77;25753;-58
2022/01/31 05:36:55;;;;;;;3.05;1.85;;;;;;;2.33;66.94;100170.39;1848898;77;27368;-60
2022/01/31 05:39:24;;;;;;;3.33;1.37;;;;;;;2.35;67.19;100164.52;1854341;77;25915;-57
2022/01/31 05:41:53;;;;;;;3.45;1.65;;;;;;;2.38;67.32;100166.95;1848523;77;25708;-57
2022/01/31 05:44:21;;;;;;;2.90;1.32;;;;;;;2.36;67.82;100168.88;1853717;77;25819;-57
2022/01/31 05:46:48;;;;;;;3.12;1.70;;;;;;;2.35;67.66;100165.84;1854263;77;25755;-60
2022/01/31 05:49:15;;;;;;;5.55;1.60;;;;;;;2.31;68.46;100174.94;1851222;77;28168;-60
2022/01/31 05:51:57;;;;;;;5.10;1.40;;;;;;;2.28;68.01;100176.00;1855662;77;25692;-60
2022/01/31 05:54:25;;;;;;;1.77;1.25;;;;;;;2.31;67.92;100177.59;1853101;76;25712;-60
2022/01/31 05:56:51;;;;;;;2.90;1.85;;;;;;;2.29;68.05;100187.00;1848110;77;25772;-60
2022/01/31 05:59:18;;;;;;;3.95;1.60;;;;;;;2.29;68.22;100183.47;1847490;77;25730;-60
2022/01/31 06:01:45;;;;;;;8.73;3.30;;;;;;;2.30;68.32;100185.17;1846042;77;27417;-60
2022/01/31 06:04:12;;;;;;;4.35;2.17;;;;;;;2.29;68.15;100173.72;1850943;77;25650;-60
2022/01/31 06:06:39;;;;;;;8.70;3.72;;;;;;;2.30;67.96;100169.25;1846850;77;25499;-60
2022/01/31 06:09:06;;;;;;;6.20;2.00;;;;;;;2.36;67.81;100172.86;1846514;77;26486;-59
2022/01/31 06:11:34;;;;;;;3.70;1.82;;;;;;;2.38;68.01;100164.79;1847561;77;25812;-60
2022/01/31 06:14:03;;;;;;;7.80;3.55;;;;;;;2.45;67.86;100167.42;1846996;77;27437;-60
2022/01/31 06:16:30;;;;;;;3.83;2.12;;;;;;;2.50;67.85;100166.67;1848656;77;25883;-58
2022/01/31 06:18:58;;;;;;;5.25;2.12;;;;;;;2.54;67.60;100161.52;1841209;77;25806;-60
2022/01/31 06:21:25;;;;;;;8.23;3.27;;;;;;;2.58;67.23;100160.84;1853330;77;25738;-59
2022/01/31 06:23:53;;;;;;;6.92;2.83;;;;;;;2.62;66.95;100167.18;1847135;77;26341;-60
2022/01/31 06:26:21;;;;;;;5.15;2.30;;;;;;;2.64;66.74;100163.95;1843996;77;27400;-58
2022/01/31 06:28:50;;;;;;;5.90;3.10;;;;;;;2.66;66.57;100162.06;1839679;77;25783;-58
2022/01/31 06:31:32;;;;;;;6.10;2.37;;;;;;;2.68;66.40;100160.62;1841006;77;25736;-58
2022/01/31 06:34:00;;;;;;;8.98;2.87;;;;;;;2.71;66.23;100167.07;1835064;77;25828;-58
2022/01/31 06:36:28;;;;;;;5.58;2.65;;;;;;;2.72;65.81;100173.22;1833430;77;25758;-58
2022/01/31 06:38:55;;;;;;;9.20;3.85;;;;;;;2.66;65.60;100172.69;1844040;77;28330;-58
2022/01/31 06:41:23;;;;;;;10.28;3.10;;;;;;;2.63;65.38;100180.00;1840171;77;25936;-59
2022/01/31 06:43:51;;;;;;;6.58;3.00;;;;;;;2.62;64.98;100182.27;1839988;77;25762;-57
2022/01/31 06:46:19;;;;;;;6.00;3.40;;;;;;;2.61;64.91;100189.86;1844178;77;25772;-58
2022/01/31 06:48:47;;;;;;;6.72;4.22;;;;;;;2.62;64.68;100184.44;1844148;77;25705;-58
2022/01/31 06:51:15;;;;;;;6.83;3.10;;;;;;;2.66;64.61;100195.72;1849684;77;27452;-58
2022/01/31 06:53:42;;;;;;;6.62;2.37;;;;;;;2.66;64.32;100200.57;1843238;77;25653;-58
2022/01/31 06:56:09;;;;;;;3.98;2.30;;;;;;;2.69;64.28;100198.67;1838261;77;25825;-58
2022/01/31 06:58:36;;;;;;;4.22;2.72;;;;;;;2.71;64.35;100206.91;1840108;77;25807;-58
2022/01/31 07:01:03;;;;;;;4.35;2.00;;;;;;;2.74;64.38;100189.42;1837228;77;25660;-60
2022/01/31 07:03:30;;;;;;;6.25;2.17;;;;;;;2.77;64.67;100203.01;1841253;77;28307;-59
2022/01/31 07:05:57;;;;;;;6.97;3.02;;;;;;;2.78;65.03;100198.91;1840802;77;26326;-58
2022/01/31 07:08:24;;;;;;;5.00;2.67;;;;;;;2.79;65.28;100206.39;1838835;77;25786;-60
2022/01/31 07:10:52;;;;;;;5.97;2.87;;;;;;;2.78;65.40;100221.98;1836673;77;26971;-59
2022/01/31 07:15:59;;;;;;;8.00;2.80;;;;;;;2.77;65.51;100205.66;1828025;78;27463;-60
2022/01/31 07:18:26;;;;;;;8.38;3.27;;;;;;;2.80;65.42;100217.39;1829051;77;25791;-59
2022/01/31 07:20:53;;;;;;;6.62;2.12;;;;;;;2.84;65.51;100218.92;1842908;77;25685;-59
2022/01/31 07:23:27;;;;;;;5.58;3.08;;;;;;;2.86;65.41;100211.70;1842924;77;26692;-59
2022/01/31 07:25:54;;;;;;;8.65;2.77;;;;;;;2.88;65.04;100218.23;1842800;77;25776;-59
2022/01/31 07:28:21;;;;;;;6.03;2.62;;;;;;;2.92;65.11;100209.09;1838392;77;28130;-59
2022/01/31 07:30:52;;;;;;;9.40;3.25;;;;;;;2.97;64.80;100203.02;1834368;77;25722;-59
2022/01/31 07:33:20;;;;;;;7.20;2.37;;;;;;;3.04;64.48;100207.45;1819542;77;25729;-59
2022/01/31 07:35:50;;;;;;;9.20;3.52;;;;;;;3.11;63.96;100202.11;1833226;77;25766;-60
2022/01/31 07:38:18;;;;;;;6.97;2.75;;;;;;;3.13;64.03;100205.03;1839408;77;25717;-60
2022/01/31 07:40:46;;;;;;;6.25;3.00;;;;;;;3.18;63.81;100202.06;1839168;77;27463;-60
2022/01/31 07:43:13;;;;;;;10.03;3.17;;;;;;;3.23;63.49;100197.77;1838920;77;25809;-60
2022/01/31 07:45:40;;;;;;;7.70;3.20;;;;;;;3.26;63.41;100202.89;1831288;77;25491;-60
2022/01/31 07:48:07;;;;;;;10.35;5.35;;;;;;;3.27;63.32;100203.27;1843485;77;26363;-59
2022/01/31 07:50:36;;;;;;;9.40;4.12;;;;;;;3.25;62.94;100209.16;1838790;77;25733;-59
2022/01/31 07:53:04;;;;;;;37.20;10.53;;;;;;;3.23;62.99;100201.76;1831849;77;27469;-60
2022/01/31 07:55:32;;;;;;;57.80;14.15;;;;;;;3.26;63.22;100206.87;1838898;76;25738;-60
2022/01/31 07:57:59;;;;;;;26.90;9.80;;;;;;;3.27;63.65;100209.91;1842901;77;25730;-59
2022/01/31 08:00:27;;;;;;;22.22;7.87;;;;;;;3.33;63.59;100205.50;1843027;77;25854;-59
2022/01/31 08:02:55;;;;;;;16.82;5.15;;;;;;;3.36;63.17;100206.61;1841537;77;25791;-59
2022/01/31 08:05:22;;;;;;;6.37;3.17;;;;;;;3.40;63.21;100208.12;1826417;77;27457;-59
2022/01/31 08:07:49;;;;;;;5.40;3.35;;;;;;;3.45;62.86;100211.30;1832547;77;25922;-60
2022/01/31 08:10:16;;;;;;;9.80;4.10;;;;;;;3.43;62.16;100207.92;1834110;77;25676;-60
2022/01/31 08:12:44;;;;;;;8.83;3.80;;;;;;;3.40;61.95;100213.44;1833183;77;25779;-60
2022/01/31 08:15:21;;;;;;;5.37;3.15;;;;;;;3.40;61.83;100206.78;1826684;77;25995;-60
2022/01/31 08:17:40;;;;;;;4.90;2.00;;;;;;;3.37;61.80;100213.63;1832756;77;27670;-59
2022/01/31 08:20:10;;;;;;;6.90;2.85;;;;;;;3.33;61.70;100209.95;1836992;77;25809;-59
2022/01/31 08:22:36;;;;;;;6.58;3.58;;;;;;;3.31;61.71;100226.02;1835885;77;25994;-59
2022/01/31 08:25:05;;;;;;;8.45;3.20;;;;;;;3.28;61.91;100224.42;1827200;77;25797;-59
2022/01/31 08:27:32;;;;;;;6.72;2.87;;;;;;;3.27;62.03;100220.06;1837931;77;25789;-59
2022/01/31 08:30:07;;;;;;;6.03;3.10;;;;;;;3.32;61.99;100234.86;1837277;77;27535;-60
2022/01/31 08:32:34;;;;;;;5.85;3.00;;;;;;;3.32;62.03;100229.55;1822423;77;25723;-59
2022/01/31 08:37:42;;;;;;;10.18;3.83;;;;;;;3.39;62.24;100235.66;1836258;77;26506;-59
2022/01/31 08:40:10;;;;;;;17.57;8.10;;;;;;;3.44;62.20;100228.24;1838149;77;26377;-59
2022/01/31 08:42:38;;;;;;;15.13;6.08;;;;;;;3.49;62.26;100228.39;1808588;78;27476;-58
2022/01/31 08:45:07;;;;;;;16.27;5.90;;;;;;;3.51;62.22;100233.97;1808328;79;25785;-59
2022/01/31 08:47:34;;;;;;;12.55;4.55;;;;;;;3.50;62.00;100234.09;1821950;77;25790;-59
2022/01/31 08:50:01;;;;;;;13.78;5.62;;;;;;;3.48;61.92;100239.98;1817391;77;25789;-59
2022/01/31 08:52:27;;;;;;;9.45;4.47;;;;;;;3.43;62.05;100246.94;1840238;77;25773;-59
2022/01/31 08:54:54;;;;;;;8.58;4.15;;;;;;;3.40;62.04;100245.34;1828752;77;28157;-59
2022/01/31 08:57:21;;;;;;;10.70;5.05;;;;;;;3.37;62.31;100246.87;1821709;78;25689;-59
2022/01/31 08:59:51;;;;;;;11.12;5.15;;;;;;;3.36;62.42;100235.85;1816538;77;25690;-59
2022/01/31 09:02:19;;;;;;;15.88;5.87;;;;;;;3.38;62.55;100230.45;1829391;77;26016;-59
2022/01/31 09:04:49;;;;;;;11.53;5.85;;;;;;;3.45;62.67;100226.42;1824537;77;25853;-59
2022/01/31 09:07:19;;;;;;;11.70;5.33;;;;;;;3.52;62.77;100224.20;1826057;77;27491;-59
2022/01/31 09:09:53;;;;;;;19.10;5.28;;;;;;;3.63;62.82;100218.98;1814326;78;25728;-59
2022/01/31 09:12:20;;;;;;;9.60;4.55;;;;;;;3.74;62.46;100204.47;1808435;78;25673;-60
2022/01/31 09:14:47;;;;;;;11.15;4.35;;;;;;;3.93;62.14;100203.69;1813912;78;25756;-60
2022/01/31 09:17:14;;;;;;;11.22;4.70;;;;;;;4.13;61.71;100187.14;1816139;78;25742;-59
2022/01/31 09:19:41;;;;;;;12.58;4.10;;;;;;;4.44;61.69;100175.63;1813613;78;27442;-59
2022/01/31 09:22:07;;;;;;;11.83;5.17;;;;;;;4.89;61.46;100175.01;1815288;78;26058;-59
2022/01/31 09:24:38;;;;;;;9.40;4.15;;;;;;;5.84;59.86;100162.52;1822037;77;25835;-59
2022/01/31 09:27:07;;;;;;;9.83;3.95;;;;;;;6.04;55.41;100171.17;1814982;77;25797;-59
2022/01/31 09:29:34;;;;;;;9.35;4.20;;;;;;;6.25;55.48;100158.42;1800140;78;25811;-59
2022/01/31 09:32:03;;;;;;;9.60;3.87;;;;;;;6.28;55.46;100163.50;1819014;78;28203;-59
2022/01/31 09:34:32;;;;;;;7.70;3.27;;;;;;;7.00;52.12;100158.58;1816077;78;25820;-59
2022/01/31 09:37:00;;;;;;;6.40;3.40;;;;;;;7.76;51.14;100153.01;1814719;78;25516;-60
2022/01/31 09:39:27;;;;;;;7.87;3.90;;;;;;;8.38;48.46;100154.30;1809397;78;25818;-59
2022/01/31 09:41:57;;;;;;;6.53;3.27;;;;;;;8.95;48.02;100136.78;1825001;77;25730;-59
2022/01/31 09:44:40;;;;;;;5.35;2.50;;;;;;;9.40;45.73;100145.06;1827350;77;27355;-59
2022/01/31 09:47:06;;;;;;;7.00;2.98;;;;;;;9.89;45.56;100136.52;1805963;78;25823;-59
2022/01/31 09:49:23;;;;;;;6.03;2.20;;;;;;;10.15;42.96;100144.24;1818386;78;25765;-59
2022/01/31 09:51:50;;;;;;;7.47;3.42;;;;;;;10.46;45.13;100142.64;1819465;77;26185;-59
2022/01/31 09:54:17;;;;;;;8.10;3.40;;;;;;;10.27;43.74;100140.02;1836065;76;25736;-60
2022/01/31 09:56:46;;;;;;;3.83;2.20;;;;;;;9.91;43.74;100134.02;1844725;77;27056;-59
2022/01/31 09:59:17;;;;;;;5.58;2.77;;;;;;;9.57;43.20;100137.76;1837211;76;25783;-59
2022/01/31 10:01:57;;;;;;;6.92;2.50;;;;;;;9.35;44.12;100129.03;1833880;76;25830;-59
2022/01/31 10:04:24;;;;;;;10.65;4.65;;;;;;;9.04;44.26;100132.74;1840757;76;26604;-60
2022/01/31 10:06:56;;;;;;;6.50;3.52;;;;;;;8.63;44.03;100136.53;1835108;77;25780;-60
2022/01/31 10:09:30;;;;;;;7.78;3.37;;;;;;;8.47;44.55;100128.55;1865383;76;28144;-59
2022/01/31 10:12:09;;;;;;;6.03;3.45;;;;;;;8.24;43.98;100137.27;1853042;76;25776;-59
2022/01/31 10:18:08;;;;;;;13.05;4.95;;;;;;;7.60;44.38;100125.41;1840741;76;25741;-59
2022/01/31 10:20:36;;;;;;;14.15;4.87;;;;;;;7.48;44.66;100128.66;1863565;76;25744;-60
2022/01/31 10:23:13;;;;;;;12.35;3.40;;;;;;;7.32;43.78;100130.92;1839707;77;28174;-59
2022/01/31 10:25:41;;;;;;;6.97;3.40;;;;;;;7.15;42.76;100125.19;1858972;77;25769;-60
2022/01/31 10:28:19;;;;;;;6.65;2.22;;;;;;;6.86;41.78;100123.62;1818365;76;26368;-59
2022/01/31 10:30:48;;;;;;;10.10;3.27;;;;;;;6.71;41.38;100133.77;1845367;76;26423;-59
2022/01/31 10:33:18;;;;;;;5.60;3.02;;;;;;;6.78;40.82;100141.64;1825667;76;25449;-59
2022/01/31 10:35:44;;;;;;;5.83;3.37;;;;;;;7.02;41.49;100138.75;1848777;76;27487;-59
2022/01/31 10:38:16;;;;;;;7.83;3.30;;;;;;;7.09;41.43;100126.19;1835336;76;25681;-59
2022/01/31 10:54:25;;;;;;;8.28;2.27;;;;;;;9.78;35.58;100085.17;1836501;76;25727;-59
2022/01/31 10:56:49;;;;;;;8.63;2.02;;;;;;;10.15;32.59;100098.55;1829652;76;27847;-59
2022/01/31 10:59:24;;;;;;;7.45;2.20;;;;;;;9.92;31.72;100076.61;1819803;77;25449;-59
2022/01/31 11:01:54;;;;;;;3.62;1.35;;;;;;;10.64;31.74;100075.91;1855333;76;27438;-59
2022/01/31 11:04:22;;;;;;;6.03;1.85;;;;;;;11.11;30.29;100081.51;1856063;76;25796;-60
2022/01/31 11:06:53;;;;;;;8.80;2.75;;;;;;;10.83;28.84;100070.03;1847449;76;25820;-60
2022/01/31 11:09:20;;;;;;;6.22;1.60;;;;;;;10.26;30.09;100069.30;1846920;76;25811;-60
2022/01/31 11:11:49;;;;;;;6.85;3.00;;;;;;;9.80;30.67;100069.76;1849183;77;25468;-60
2022/01/31 11:14:20;;;;;;;11.50;2.55;;;;;;;9.42;32.20;100068.91;1850274;76;27424;-60
2022/01/31 11:16:49;;;;;;;6.15;1.70;;;;;;;9.18;32.51;100074.27;1849988;76;25797;-60
2022/01/31 11:19:23;;;;;;;6.42;2.45;;;;;;;8.89;32.30;100071.96;1853483;77;25472;-60
2022/01/31 11:21:48;;;;;;;8.35;1.67;;;;;;;9.01;31.87;100078.02;1837030;76;43946;-60
2022/01/31 11:24:30;;;;;;;4.15;1.62;;;;;;;9.91;31.44;100079.45;1834023;76;25747;-60
2022/01/31 11:27:09;;;;;;;8.85;2.00;;;;;;;11.14;30.25;100071.78;1846800;76;27695;-60
2022/01/31 11:29:41;;;;;;;6.35;1.67;;;;;;;12.23;28.21;100055.17;1846372;76;25694;-60
2022/01/31 11:32:09;;;;;;;6.00;1.95;;;;;;;12.78;25.93;100068.56;1839136;76;25836;-60
2022/01/31 11:34:40;;;;;;;4.62;2.00;;;;;;;13.24;25.05;100057.22;1837650;76;26356;-60
2022/01/31 11:37:10;;;;;;;2.58;1.47;;;;;;;13.97;25.41;100047.76;1853596;76;25812;-60
2022/01/31 11:39:41;;;;;;;7.42;1.30;;;;;;;14.21;23.22;100077.87;1848791;76;28283;-60
2022/01/31 11:42:10;;;;;;;5.45;1.60;;;;;;;14.12;23.10;100060.86;1804534;76;25746;-61
2022/01/31 11:45:03;;;;;;;5.28;2.00;;;;;;;13.06;24.38;100046.11;1852478;76;26122;-60
2022/01/31 11:47:32;;;;;;;16.45;3.08;;;;;;;11.96;24.95;100066.00;1787566;76;26983;-60
2022/01/31 11:50:04;;;;;;;13.90;2.15;;;;;;;11.07;26.82;100064.83;1846082;77;25801;-61
2022/01/31 11:52:53;;;;;;;10.72;3.42;;;;;;;10.60;27.75;100062.41;1854804;76;28186;-61
2022/01/31 11:55:24;;;;;;;11.12;2.22;;;;;;;10.14;28.66;100060.58;1844244;77;25741;-60
2022/01/31 11:57:53;;;;;;;18.75;3.15;;;;;;;9.87;28.95;100062.79;1841263;77;25715;-61
2022/01/31 12:00:24;;;;;;;8.18;2.85;;;;;;;10.02;28.58;100081.44;1848200;77;25813;-60